sensor_id;sensor_type;location;lat;lon;timestamp;pressure;altitude;pressure_sealevel;temperature;humidity
75505;BME280;64085;54.974;73.410;2023-03-13T00:00:55;102034.69;;;-5.59;51.47
75505;BME280;64085;54.974;73.410;2023-03-13T00:03:21;102043.00;;;-5.54;52.00
75505;BME280;64085;54.974;73.410;2023-03-13T00:05:47;102036.13;;;-5.77;51.37
75505;BME280;64085;54.974;73.410;2023-03-13T00:08:13;102040.91;;;-5.59;52.09
75505;BME280;64085;54.974;73.410;2023-03-13T00:10:39;102055.00;;;-5.57;51.71
75505;BME280;64085;54.974;73.410;2023-03-13T00:13:08;102063.50;;;-5.67;52.48
75505;BME280;64085;54.974;73.410;2023-03-13T00:15:34;102063.72;;;-5.61;51.18
75505;BME280;64085;54.974;73.410;2023-03-13T00:18:00;102040.88;;;-5.79;52.04
75505;BME280;64085;54.974;73.410;2023-03-13T00:20:26;102063.25;;;-5.78;51.26
75505;BME280;64085;54.974;73.410;2023-03-13T00:22:51;102032.31;;;-6.09;51.85
75505;BME280;64085;54.974;73.410;2023-03-13T00:25:17;102058.09;;;-5.80;52.79
75505;BME280;64085;54.974;73.410;2023-03-13T00:27:43;102026.16;;;-5.96;50.99
75505;BME280;64085;54.974;73.410;2023-03-13T00:30:09;102057.44;;;-5.95;52.41
75505;BME280;64085;54.974;73.410;2023-03-13T00:32:42;102064.88;;;-5.97;53.03
75505;BME280;64085;54.974;73.410;2023-03-13T00:35:08;102070.28;;;-5.90;52.87
75505;BME280;64085;54.974;73.410;2023-03-13T00:37:33;102083.81;;;-5.71;52.91
75505;BME280;64085;54.974;73.410;2023-03-13T00:39:59;102078.44;;;-5.57;52.09
75505;BME280;64085;54.974;73.410;2023-03-13T00:42:25;102073.03;;;-5.57;52.70
75505;BME280;64085;54.974;73.410;2023-03-13T00:44:50;102083.84;;;-5.51;51.66
75505;BME280;64085;54.974;73.410;2023-03-13T00:47:16;102082.97;;;-5.71;51.05
75505;BME280;64085;54.974;73.410;2023-03-13T00:49:42;102075.13;;;-5.40;51.09
75505;BME280;64085;54.974;73.410;2023-03-13T00:52:07;102085.72;;;-5.45;51.93
75505;BME280;64085;54.974;73.410;2023-03-13T00:54:33;102083.44;;;-5.54;50.97
75505;BME280;64085;54.974;73.410;2023-03-13T00:56:58;102073.19;;;-5.85;51.77
75505;BME280;64085;54.974;73.410;2023-03-13T00:59:24;102079.44;;;-5.78;51.54
75505;BME280;64085;54.974;73.410;2023-03-13T01:01:50;102026.94;;;-6.09;52.49
75505;BME280;64085;54.974;73.410;2023-03-13T01:04:15;102076.50;;;-5.83;51.95
75505;BME280;64085;54.974;73.410;2023-03-13T01:06:41;102088.09;;;-5.83;51.89
75505;BME280;64085;54.974;73.410;2023-03-13T01:09:09;102097.09;;;-6.17;53.39
75505;BME280;64085;54.974;73.410;2023-03-13T01:11:37;102067.44;;;-6.30;53.57
75505;BME280;64085;54.974;73.410;2023-03-13T01:14:06;102105.84;;;-6.08;52.48
75505;BME280;64085;54.974;73.410;2023-03-13T01:16:34;102103.31;;;-6.16;52.75
75505;BME280;64085;54.974;73.410;2023-03-13T01:19:03;102104.44;;;-5.98;53.55
75505;BME280;64085;54.974;73.410;2023-03-13T01:21:29;102105.44;;;-6.12;52.38
75505;BME280;64085;54.974;73.410;2023-03-13T01:23:55;102094.25;;;-6.09;52.49
75505;BME280;64085;54.974;73.410;2023-03-13T01:26:23;102081.56;;;-6.15;53.28
75505;BME280;64085;54.974;73.410;2023-03-13T01:28:49;102089.94;;;-6.03;52.51
75505;BME280;64085;54.974;73.410;2023-03-13T01:31:41;102092.25;;;-5.80;53.57
75505;BME280;64085;54.974;73.410;2023-03-13T01:34:07;102073.94;;;-5.11;52.16
75505;BME280;64085;54.974;73.410;2023-03-13T01:36:34;102095.63;;;-4.33;50.94
75505;BME280;64085;54.974;73.410;2023-03-13T01:39:01;102091.00;;;-3.04;48.54
75505;BME280;64085;54.974;73.410;2023-03-13T01:41:28;102091.47;;;-2.39;45.53
75505;BME280;64085;54.974;73.410;2023-03-13T01:43:54;102083.84;;;-1.46;44.11
75505;BME280;64085;54.974;73.410;2023-03-13T01:46:28;102075.84;;;-0.64;42.20
75505;BME280;64085;54.974;73.410;2023-03-13T01:51:26;102089.66;;;1.29;38.17
75505;BME280;64085;54.974;73.410;2023-03-13T01:54:09;102081.22;;;1.48;38.52
75505;BME280;64085;54.974;73.410;2023-03-13T01:59:03;102082.19;;;3.79;33.49
75505;BME280;64085;54.974;73.410;2023-03-13T02:01:29;102079.78;;;4.66;32.15
75505;BME280;64085;54.974;73.410;2023-03-13T02:03:56;102089.66;;;5.13;31.13
75505;BME280;64085;54.974;73.410;2023-03-13T02:06:24;102090.75;;;5.47;30.17
75505;BME280;64085;54.974;73.410;2023-03-13T02:08:58;102047.53;;;6.58;28.11
75505;BME280;64085;54.974;73.410;2023-03-13T02:11:28;102086.41;;;7.73;26.62
75505;BME280;64085;54.974;73.410;2023-03-13T02:13:57;102069.16;;;8.34;24.60
75505;BME280;64085;54.974;73.410;2023-03-13T02:16:23;102068.66;;;9.53;25.00
75505;BME280;64085;54.974;73.410;2023-03-13T02:18:49;102086.19;;;10.45;24.34
75505;BME280;64085;54.974;73.410;2023-03-13T02:23:58;102096.66;;;11.29;21.79
75505;BME280;64085;54.974;73.410;2023-03-13T02:26:27;102091.31;;;11.64;20.74
75505;BME280;64085;54.974;73.410;2023-03-13T02:28:52;102095.88;;;12.48;21.15
75505;BME280;64085;54.974;73.410;2023-03-13T02:31:18;102086.63;;;12.95;20.02
75505;BME280;64085;54.974;73.410;2023-03-13T02:33:44;102094.69;;;13.61;20.39
75505;BME280;64085;54.974;73.410;2023-03-13T02:36:11;102100.91;;;13.67;19.55
75505;BME280;64085;54.974;73.410;2023-03-13T02:38:52;102085.19;;;14.47;19.39
75505;BME280;64085;54.974;73.410;2023-03-13T02:41:20;102094.72;;;15.54;17.66
75505;BME280;64085;54.974;73.410;2023-03-13T02:43:47;102099.81;;;16.22;17.48
75505;BME280;64085;54.974;73.410;2023-03-13T02:46:15;102105.63;;;15.92;17.55
75505;BME280;64085;54.974;73.410;2023-03-13T02:48:46;102089.69;;;16.29;15.07
75505;BME280;64085;54.974;73.410;2023-03-13T02:54:06;102085.56;;;17.60;14.09
75505;BME280;64085;54.974;73.410;2023-03-13T02:56:35;102090.38;;;18.93;14.33
75505;BME280;64085;54.974;73.410;2023-03-13T02:59:01;102101.88;;;19.26;13.60
75505;BME280;64085;54.974;73.410;2023-03-13T03:01:27;102102.38;;;18.58;13.70
75505;BME280;64085;54.974;73.410;2023-03-13T03:03:53;102083.16;;;17.30;13.06
75505;BME280;64085;54.974;73.410;2023-03-13T03:06:19;102063.56;;;15.85;15.14
75505;BME280;64085;54.974;73.410;2023-03-13T03:08:44;102090.97;;;16.56;14.85
75505;BME280;64085;54.974;73.410;2023-03-13T03:11:10;102097.16;;;18.06;13.58
75505;BME280;64085;54.974;73.410;2023-03-13T03:13:36;102091.81;;;17.25;13.59
75505;BME280;64085;54.974;73.410;2023-03-13T03:16:10;102098.47;;;19.36;13.23
75505;BME280;64085;54.974;73.410;2023-03-13T03:18:37;102094.53;;;17.97;12.94
75505;BME280;64085;54.974;73.410;2023-03-13T03:21:04;102086.44;;;19.36;12.70
75505;BME280;64085;54.974;73.410;2023-03-13T03:23:33;102089.66;;;21.13;10.61
75505;BME280;64085;54.974;73.410;2023-03-13T03:26:00;102084.44;;;22.37;10.99
75505;BME280;64085;54.974;73.410;2023-03-13T03:28:26;102070.84;;;23.54;10.07
75505;BME280;64085;54.974;73.410;2023-03-13T03:30:52;102078.56;;;25.41;9.58
75505;BME280;64085;54.974;73.410;2023-03-13T03:33:22;102089.53;;;26.40;8.41
75505;BME280;64085;54.974;73.410;2023-03-13T03:35:48;102091.34;;;27.83;8.06
75505;BME280;64085;54.974;73.410;2023-03-13T03:38:14;102093.09;;;28.47;7.47
75505;BME280;64085;54.974;73.410;2023-03-13T03:40:39;102085.66;;;25.74;8.76
75505;BME280;64085;54.974;73.410;2023-03-13T03:43:05;102089.75;;;26.90;8.30
75505;BME280;64085;54.974;73.410;2023-03-13T03:45:31;102092.13;;;28.34;7.38
75505;BME280;64085;54.974;73.410;2023-03-13T03:47:56;102088.03;;;29.70;6.74
75505;BME280;64085;54.974;73.410;2023-03-13T03:50:26;102070.00;;;28.84;7.05
75505;BME280;64085;54.974;73.410;2023-03-13T03:52:52;102087.41;;;29.79;7.04
75505;BME280;64085;54.974;73.410;2023-03-13T03:55:18;102094.44;;;30.97;6.13
75505;BME280;64085;54.974;73.410;2023-03-13T03:57:44;102087.00;;;31.00;6.52
75505;BME280;64085;54.974;73.410;2023-03-13T04:00:11;102089.94;;;31.89;5.47
75505;BME280;64085;54.974;73.410;2023-03-13T04:02:39;102096.03;;;32.38;5.23
75505;BME280;64085;54.974;73.410;2023-03-13T04:05:05;102088.16;;;32.52;4.97
75505;BME280;64085;54.974;73.410;2023-03-13T04:07:31;102095.81;;;32.89;5.14
75505;BME280;64085;54.974;73.410;2023-03-13T04:09:57;102091.81;;;32.52;4.72
75505;BME280;64085;54.974;73.410;2023-03-13T04:12:22;102103.84;;;33.35;5.24
75505;BME280;64085;54.974;73.410;2023-03-13T04:14:48;102078.09;;;32.12;5.19
75505;BME280;64085;54.974;73.410;2023-03-13T04:17:14;102090.19;;;32.64;4.49
75505;BME280;64085;54.974;73.410;2023-03-13T04:19:40;102059.25;;;28.72;6.21
75505;BME280;64085;54.974;73.410;2023-03-13T04:22:06;102070.78;;;29.05;5.98
75505;BME280;64085;54.974;73.410;2023-03-13T04:24:32;102074.75;;;29.63;5.13
75505;BME280;64085;54.974;73.410;2023-03-13T04:26:58;102095.16;;;29.62;6.09
75505;BME280;64085;54.974;73.410;2023-03-13T04:29:23;102091.38;;;30.46;5.91
75505;BME280;64085;54.974;73.410;2023-03-13T04:31:50;102097.44;;;33.52;4.75
75505;BME280;64085;54.974;73.410;2023-03-13T04:34:15;102103.47;;;33.95;4.06
75505;BME280;64085;54.974;73.410;2023-03-13T04:36:41;102095.66;;;32.93;4.85
75505;BME280;64085;54.974;73.410;2023-03-13T04:39:07;102062.16;;;32.24;4.97
75505;BME280;64085;54.974;73.410;2023-03-13T04:41:32;102091.84;;;32.74;4.51
75505;BME280;64085;54.974;73.410;2023-03-13T04:43:58;102089.25;;;31.72;5.39
75505;BME280;64085;54.974;73.410;2023-03-13T04:46:23;102078.66;;;34.19;4.55
75505;BME280;64085;54.974;73.410;2023-03-13T04:48:51;102071.00;;;33.26;4.68
75505;BME280;64085;54.974;73.410;2023-03-13T04:51:16;102102.75;;;33.10;4.92
75505;BME280;64085;54.974;73.410;2023-03-13T04:53:42;102094.81;;;31.12;5.52
75505;BME280;64085;54.974;73.410;2023-03-13T04:56:08;102093.50;;;31.55;4.64
75505;BME280;64085;54.974;73.410;2023-03-13T04:58:35;102103.91;;;27.85;6.07
75505;BME280;64085;54.974;73.410;2023-03-13T05:01:01;102101.56;;;28.03;6.58
75505;BME280;64085;54.974;73.410;2023-03-13T05:03:26;102099.00;;;30.04;5.87
75505;BME280;64085;54.974;73.410;2023-03-13T05:05:52;102100.44;;;26.79;7.02
75505;BME280;64085;54.974;73.410;2023-03-13T05:08:18;102106.00;;;25.51;7.45
75505;BME280;64085;54.974;73.410;2023-03-13T05:10:43;102095.75;;;28.11;6.21
75505;BME280;64085;54.974;73.410;2023-03-13T05:13:09;102092.59;;;30.62;5.49
75505;BME280;64085;54.974;73.410;2023-03-13T05:15:35;102087.41;;;31.91;4.62
75505;BME280;64085;54.974;73.410;2023-03-13T05:18:00;102110.13;;;33.20;4.07
75505;BME280;64085;54.974;73.410;2023-03-13T05:20:26;102077.56;;;32.05;5.10
75505;BME280;64085;54.974;73.410;2023-03-13T05:22:52;102102.28;;;31.73;5.17
75505;BME280;64085;54.974;73.410;2023-03-13T05:25:17;102112.56;;;32.56;4.59
75505;BME280;64085;54.974;73.410;2023-03-13T05:27:44;102071.66;;;31.23;4.69
75505;BME280;64085;54.974;73.410;2023-03-13T05:30:10;102093.09;;;32.51;4.75
75505;BME280;64085;54.974;73.410;2023-03-13T05:32:36;102104.31;;;30.80;4.78
75505;BME280;64085;54.974;73.410;2023-03-13T05:35:02;102088.00;;;31.48;4.70
75505;BME280;64085;54.974;73.410;2023-03-13T05:37:27;102102.13;;;30.55;5.49
75505;BME280;64085;54.974;73.410;2023-03-13T05:39:53;102065.63;;;30.63;4.79
75505;BME280;64085;54.974;73.410;2023-03-13T05:42:19;102046.44;;;29.56;5.26
75505;BME280;64085;54.974;73.410;2023-03-13T05:44:44;102090.84;;;31.99;4.47
75505;BME280;64085;54.974;73.410;2023-03-13T05:47:10;102089.16;;;31.63;5.08
75505;BME280;64085;54.974;73.410;2023-03-13T05:49:36;102070.56;;;26.33;6.64
75505;BME280;64085;54.974;73.410;2023-03-13T05:52:01;102066.47;;;26.75;6.93
75505;BME280;64085;54.974;73.410;2023-03-13T05:54:27;102056.03;;;27.84;6.35
75505;BME280;64085;54.974;73.410;2023-03-13T05:56:52;102084.56;;;28.86;6.22
75505;BME280;64085;54.974;73.410;2023-03-13T05:59:18;102082.09;;;30.42;5.58
75505;BME280;64085;54.974;73.410;2023-03-13T06:01:44;102049.78;;;30.62;4.84
75505;BME280;64085;54.974;73.410;2023-03-13T06:04:10;102065.78;;;31.14;5.05
75505;BME280;64085;54.974;73.410;2023-03-13T06:06:35;102063.31;;;31.28;5.21
75505;BME280;64085;54.974;73.410;2023-03-13T06:09:01;102068.56;;;29.49;5.47
75505;BME280;64085;54.974;73.410;2023-03-13T06:11:27;102042.38;;;25.67;7.03
75505;BME280;64085;54.974;73.410;2023-03-13T06:13:52;102089.81;;;26.52;7.31
75505;BME280;64085;54.974;73.410;2023-03-13T06:16:18;102080.28;;;28.98;6.01
75505;BME280;64085;54.974;73.410;2023-03-13T06:18:44;102062.06;;;28.09;6.40
75505;BME280;64085;54.974;73.410;2023-03-13T06:21:10;102061.75;;;27.53;6.73
75505;BME280;64085;54.974;73.410;2023-03-13T06:23:36;102050.97;;;27.14;6.86
75505;BME280;64085;54.974;73.410;2023-03-13T06:26:02;102055.94;;;25.93;7.05
75505;BME280;64085;54.974;73.410;2023-03-13T06:28:28;102057.94;;;24.28;7.91
75505;BME280;64085;54.974;73.410;2023-03-13T06:30:53;102061.50;;;22.38;8.96
75505;BME280;64085;54.974;73.410;2023-03-13T06:33:19;102049.13;;;23.91;8.40
75505;BME280;64085;54.974;73.410;2023-03-13T06:35:45;102039.59;;;25.60;7.25
75505;BME280;64085;54.974;73.410;2023-03-13T06:38:11;102047.13;;;22.61;8.85
75505;BME280;64085;54.974;73.410;2023-03-13T06:40:37;102041.78;;;18.85;11.14
75505;BME280;64085;54.974;73.410;2023-03-13T06:43:03;102044.13;;;14.65;14.46
75505;BME280;64085;54.974;73.410;2023-03-13T06:45:28;102049.41;;;12.88;16.03
75505;BME280;64085;54.974;73.410;2023-03-13T06:47:54;102010.34;;;10.82;18.21
75505;BME280;64085;54.974;73.410;2023-03-13T06:50:20;102040.59;;;11.23;18.07
75505;BME280;64085;54.974;73.410;2023-03-13T06:52:46;102058.28;;;10.91;18.78
75505;BME280;64085;54.974;73.410;2023-03-13T06:55:12;102046.97;;;9.74;20.47
75505;BME280;64085;54.974;73.410;2023-03-13T06:57:38;102052.06;;;10.50;19.79
75505;BME280;64085;54.974;73.410;2023-03-13T07:00:04;102050.91;;;10.01;20.13
75505;BME280;64085;54.974;73.410;2023-03-13T07:02:35;102036.06;;;9.09;22.31
75505;BME280;64085;54.974;73.410;2023-03-13T07:05:01;102039.44;;;8.31;22.74
75505;BME280;64085;54.974;73.410;2023-03-13T07:07:31;102040.88;;;8.85;22.97
75505;BME280;64085;54.974;73.410;2023-03-13T07:09:58;102023.34;;;7.76;24.37
75505;BME280;64085;54.974;73.410;2023-03-13T07:12:24;101993.81;;;7.34;24.78
75505;BME280;64085;54.974;73.410;2023-03-13T07:14:49;102036.72;;;6.28;26.83
75505;BME280;64085;54.974;73.410;2023-03-13T07:17:15;102051.03;;;6.64;26.91
75505;BME280;64085;54.974;73.410;2023-03-13T07:19:41;102043.16;;;6.52;26.60
75505;BME280;64085;54.974;73.410;2023-03-13T07:22:06;102018.03;;;6.69;26.45
75505;BME280;64085;54.974;73.410;2023-03-13T07:24:32;102024.88;;;6.32;27.55
75505;BME280;64085;54.974;73.410;2023-03-13T07:26:58;102031.69;;;5.75;29.29
75505;BME280;64085;54.974;73.410;2023-03-13T07:29:23;102023.50;;;6.74;27.55
75505;BME280;64085;54.974;73.410;2023-03-13T07:31:49;102031.50;;;6.31;28.55
75505;BME280;64085;54.974;73.410;2023-03-13T07:34:15;102031.13;;;5.78;29.56
75505;BME280;64085;54.974;73.410;2023-03-13T07:36:42;102016.00;;;5.86;29.05
75505;BME280;64085;54.974;73.410;2023-03-13T07:39:08;101999.84;;;5.79;30.12
75505;BME280;64085;54.974;73.410;2023-03-13T07:41:34;102019.44;;;5.42;31.14
75505;BME280;64085;54.974;73.410;2023-03-13T07:44:00;102028.63;;;5.97;30.44
75505;BME280;64085;54.974;73.410;2023-03-13T07:46:25;102023.91;;;6.08;30.37
75505;BME280;64085;54.974;73.410;2023-03-13T07:48:52;102027.91;;;6.70;29.27
75505;BME280;64085;54.974;73.410;2023-03-13T07:51:23;102023.09;;;6.07;30.79
75505;BME280;64085;54.974;73.410;2023-03-13T07:53:49;102001.63;;;5.29;32.30
75505;BME280;64085;54.974;73.410;2023-03-13T07:56:18;102031.53;;;5.21;33.13
75505;BME280;64085;54.974;73.410;2023-03-13T07:58:44;102029.63;;;6.16;31.49
75505;BME280;64085;54.974;73.410;2023-03-13T08:01:13;102028.38;;;6.48;31.07
75505;BME280;64085;54.974;73.410;2023-03-13T08:03:39;101992.81;;;6.62;30.67
75505;BME280;64085;54.974;73.410;2023-03-13T08:06:07;102001.44;;;5.96;32.20
75505;BME280;64085;54.974;73.410;2023-03-13T08:08:34;102011.97;;;6.33;31.98
75505;BME280;64085;54.974;73.410;2023-03-13T08:11:01;102021.81;;;6.78;31.54
75505;BME280;64085;54.974;73.410;2023-03-13T08:13:28;101977.38;;;6.32;31.63
75505;BME280;64085;54.974;73.410;2023-03-13T08:16:12;102012.53;;;5.60;33.85
75505;BME280;64085;54.974;73.410;2023-03-13T08:18:40;101986.19;;;5.64;33.97
75505;BME280;64085;54.974;73.410;2023-03-13T08:21:17;102001.91;;;5.33;34.18
75505;BME280;64085;54.974;73.410;2023-03-13T08:23:43;101970.19;;;4.40;36.12
75505;BME280;64085;54.974;73.410;2023-03-13T08:26:17;102003.31;;;4.95;35.71
75505;BME280;64085;54.974;73.410;2023-03-13T08:28:45;101997.28;;;5.03;35.13
75505;BME280;64085;54.974;73.410;2023-03-13T08:31:15;102001.94;;;5.02;35.40
75505;BME280;64085;54.974;73.410;2023-03-13T08:33:42;102004.63;;;5.43;34.80
75505;BME280;64085;54.974;73.410;2023-03-13T08:38:38;101996.75;;;4.60;36.89
75505;BME280;64085;54.974;73.410;2023-03-13T08:41:07;101983.88;;;4.56;36.68
75505;BME280;64085;54.974;73.410;2023-03-13T08:43:33;101984.66;;;5.32;35.25
75505;BME280;64085;54.974;73.410;2023-03-13T08:45:59;101973.09;;;5.41;34.78
75505;BME280;64085;54.974;73.410;2023-03-13T08:48:24;101984.97;;;4.75;36.64
75505;BME280;64085;54.974;73.410;2023-03-13T08:51:13;101985.22;;;5.04;35.82
75505;BME280;64085;54.974;73.410;2023-03-13T08:53:41;101992.88;;;5.32;35.45
75505;BME280;64085;54.974;73.410;2023-03-13T08:56:08;101983.72;;;5.62;34.53
75505;BME280;64085;54.974;73.410;2023-03-13T08:58:34;101979.94;;;5.43;35.11
75505;BME280;64085;54.974;73.410;2023-03-13T09:03:39;101970.75;;;5.83;34.32
75505;BME280;64085;54.974;73.410;2023-03-13T09:06:06;101974.41;;;5.63;34.65
75505;BME280;64085;54.974;73.410;2023-03-13T09:08:32;101976.13;;;5.39;35.16
75505;BME280;64085;54.974;73.410;2023-03-13T09:11:06;101965.38;;;5.53;34.87
75505;BME280;64085;54.974;73.410;2023-03-13T09:13:34;101977.03;;;4.89;35.48
75505;BME280;64085;54.974;73.410;2023-03-13T09:16:02;101978.13;;;4.67;37.06
75505;BME280;64085;54.974;73.410;2023-03-13T09:18:29;101967.97;;;4.32;37.30
75505;BME280;64085;54.974;73.410;2023-03-13T09:20:54;101956.75;;;4.34;37.43
75505;BME280;64085;54.974;73.410;2023-03-13T09:23:21;101974.81;;;5.16;36.02
75505;BME280;64085;54.974;73.410;2023-03-13T09:25:54;101983.75;;;5.57;35.09
75505;BME280;64085;54.974;73.410;2023-03-13T09:28:21;101979.22;;;5.02;36.15
75505;BME280;64085;54.974;73.410;2023-03-13T09:30:47;101934.31;;;4.72;36.16
75505;BME280;64085;54.974;73.410;2023-03-13T09:33:17;101976.47;;;4.92;36.43
75505;BME280;64085;54.974;73.410;2023-03-13T09:35:43;101983.88;;;5.06;37.09
75505;BME280;64085;54.974;73.410;2023-03-13T09:38:18;101971.50;;;5.19;35.57
75505;BME280;64085;54.974;73.410;2023-03-13T09:40:47;101970.72;;;4.98;36.25
75505;BME280;64085;54.974;73.410;2023-03-13T09:43:40;101963.88;;;4.70;36.89
75505;BME280;64085;54.974;73.410;2023-03-13T09:46:12;101978.94;;;5.03;36.43
75505;BME280;64085;54.974;73.410;2023-03-13T09:48:50;101983.31;;;5.09;36.33
75505;BME280;64085;54.974;73.410;2023-03-13T09:51:37;101972.09;;;4.75;36.94
75505;BME280;64085;54.974;73.410;2023-03-13T09:54:27;101978.66;;;5.00;36.57
75505;BME280;64085;54.974;73.410;2023-03-13T09:57:11;101975.66;;;4.30;38.37
75505;BME280;64085;54.974;73.410;2023-03-13T10:02:32;101957.69;;;3.77;39.05
75505;BME280;64085;54.974;73.410;2023-03-13T10:05:17;101969.31;;;4.24;38.14
75505;BME280;64085;54.974;73.410;2023-03-13T10:07:44;101957.81;;;4.28;38.14
75505;BME280;64085;54.974;73.410;2023-03-13T10:10:19;101967.63;;;3.98;38.88
75505;BME280;64085;54.974;73.410;2023-03-13T10:12:48;101954.78;;;4.04;38.37
75505;BME280;64085;54.974;73.410;2023-03-13T10:15:30;101968.81;;;4.73;37.47
75505;BME280;64085;54.974;73.410;2023-03-13T10:17:58;101948.25;;;4.25;38.17
75505;BME280;64085;54.974;73.410;2023-03-13T10:20:33;101966.63;;;4.65;37.77
75505;BME280;64085;54.974;73.410;2023-03-13T10:23:04;101957.31;;;4.46;37.40
75505;BME280;64085;54.974;73.410;2023-03-13T10:25:35;101964.44;;;4.67;37.40
75505;BME280;64085;54.974;73.410;2023-03-13T10:28:03;101960.16;;;3.78;38.91
75505;BME280;64085;54.974;73.410;2023-03-13T10:30:31;101938.97;;;4.31;37.71
75505;BME280;64085;54.974;73.410;2023-03-13T10:33:17;101908.75;;;3.70;38.60
75505;BME280;64085;54.974;73.410;2023-03-13T10:35:43;101951.81;;;4.36;37.49
75505;BME280;64085;54.974;73.410;2023-03-13T10:38:27;101940.25;;;3.88;38.90
75505;BME280;64085;54.974;73.410;2023-03-13T10:40:58;101951.53;;;4.22;38.54
75505;BME280;64085;54.974;73.410;2023-03-13T10:43:25;101960.50;;;4.02;38.27
75505;BME280;64085;54.974;73.410;2023-03-13T10:45:52;101936.84;;;3.55;38.90
75505;BME280;64085;54.974;73.410;2023-03-13T10:48:20;101952.78;;;3.74;38.87
75505;BME280;64085;54.974;73.410;2023-03-13T10:50:49;101947.34;;;3.94;38.58
75505;BME280;64085;54.974;73.410;2023-03-13T10:53:35;101954.97;;;3.77;38.75
75505;BME280;64085;54.974;73.410;2023-03-13T10:56:14;101947.75;;;3.50;39.51
75505;BME280;64085;54.974;73.410;2023-03-13T10:58:45;101946.25;;;3.90;38.16
75505;BME280;64085;54.974;73.410;2023-03-13T11:03:44;101932.47;;;3.02;39.62
75505;BME280;64085;54.974;73.410;2023-03-13T11:06:33;101926.22;;;3.06;40.50
75505;BME280;64085;54.974;73.410;2023-03-13T11:11:30;101888.19;;;2.95;40.21
75505;BME280;64085;54.974;73.410;2023-03-13T11:14:33;101932.78;;;3.05;40.76
75505;BME280;64085;54.974;73.410;2023-03-13T11:38:18;101885.34;;;2.79;40.31
75505;BME280;64085;54.974;73.410;2023-03-13T11:49:42;101879.25;;;2.67;41.52
75505;BME280;64085;54.974;73.410;2023-03-13T11:55:11;101883.50;;;2.48;41.70
75505;BME280;64085;54.974;73.410;2023-03-13T12:00:28;101877.16;;;2.42;41.55
75505;BME280;64085;54.974;73.410;2023-03-13T12:05:56;101861.38;;;2.12;42.01
75505;BME280;64085;54.974;73.410;2023-03-13T12:11:15;101866.44;;;1.72;43.13
75505;BME280;64085;54.974;73.410;2023-03-13T12:14:19;101860.31;;;1.86;42.61
75505;BME280;64085;54.974;73.410;2023-03-13T12:19:47;101858.88;;;1.30;43.87
75505;BME280;64085;54.974;73.410;2023-03-13T12:22:22;101845.44;;;1.72;42.48
75505;BME280;64085;54.974;73.410;2023-03-13T12:24:55;101849.84;;;1.51;42.76
75505;BME280;64085;54.974;73.410;2023-03-13T12:27:41;101840.94;;;1.34;43.80
75505;BME280;64085;54.974;73.410;2023-03-13T12:30:26;101860.09;;;1.17;43.28
75505;BME280;64085;54.974;73.410;2023-03-13T12:33:10;101841.34;;;0.99;44.19
75505;BME280;64085;54.974;73.410;2023-03-13T12:35:39;101841.78;;;1.12;43.82
75505;BME280;64085;54.974;73.410;2023-03-13T12:41:47;101857.53;;;0.89;44.06
75505;BME280;64085;54.974;73.410;2023-03-13T12:44:18;101853.72;;;0.68;44.54
75505;BME280;64085;54.974;73.410;2023-03-13T12:46:56;101853.09;;;0.27;45.90
75505;BME280;64085;54.974;73.410;2023-03-13T12:59:59;101855.16;;;0.20;45.11
75505;BME280;64085;54.974;73.410;2023-03-13T13:02:32;101838.28;;;-0.44;46.17
75505;BME280;64085;54.974;73.410;2023-03-13T13:05:01;101836.25;;;-0.66;46.42
75505;BME280;64085;54.974;73.410;2023-03-13T13:07:32;101853.88;;;-0.23;45.92
75505;BME280;64085;54.974;73.410;2023-03-13T13:12:33;101850.19;;;-0.34;45.30
75505;BME280;64085;54.974;73.410;2023-03-13T13:15:10;101840.81;;;-0.95;47.18
75505;BME280;64085;54.974;73.410;2023-03-13T13:20:34;101850.47;;;-0.47;45.64
75505;BME280;64085;54.974;73.410;2023-03-13T13:23:36;101844.91;;;-0.52;45.80
75505;BME280;64085;54.974;73.410;2023-03-13T13:36:57;101822.31;;;-0.98;48.28
75505;BME280;64085;54.974;73.410;2023-03-13T13:39:45;101835.59;;;-0.85;49.18
75505;BME280;64085;54.974;73.410;2023-03-13T13:47:40;101840.47;;;-0.98;49.26
75505;BME280;64085;54.974;73.410;2023-03-13T13:52:47;101826.75;;;-1.67;51.93
75505;BME280;64085;54.974;73.410;2023-03-13T13:55:41;101830.00;;;-1.06;50.46
75505;BME280;64085;54.974;73.410;2023-03-13T13:58:17;101823.88;;;-1.14;50.49
75505;BME280;64085;54.974;73.410;2023-03-13T14:03:21;101827.59;;;-0.91;49.88
75505;BME280;64085;54.974;73.410;2023-03-13T14:05:51;101819.41;;;-0.79;50.20
75505;BME280;64085;54.974;73.410;2023-03-13T14:08:44;101811.63;;;-0.88;49.88
75505;BME280;64085;54.974;73.410;2023-03-13T14:11:24;101817.19;;;-0.94;50.17
75505;BME280;64085;54.974;73.410;2023-03-13T14:14:12;101800.44;;;-0.91;50.59
75505;BME280;64085;54.974;73.410;2023-03-13T14:16:39;101758.09;;;-1.32;51.13
75505;BME280;64085;54.974;73.410;2023-03-13T14:22:03;101802.50;;;-1.10;51.65
75505;BME280;64085;54.974;73.410;2023-03-13T14:24:29;101776.56;;;-1.18;50.83
75505;BME280;64085;54.974;73.410;2023-03-13T14:26:55;101782.66;;;-1.10;51.07
75505;BME280;64085;54.974;73.410;2023-03-13T14:29:21;101787.47;;;-1.41;52.17
75505;BME280;64085;54.974;73.410;2023-03-13T14:31:55;101771.91;;;-1.34;52.07
75505;BME280;64085;54.974;73.410;2023-03-13T14:34:21;101786.19;;;-1.62;52.83
75505;BME280;64085;54.974;73.410;2023-03-13T14:36:54;101800.16;;;-1.18;51.48
75505;BME280;64085;54.974;73.410;2023-03-13T14:42:05;101793.03;;;-1.48;52.70
75505;BME280;64085;54.974;73.410;2023-03-13T14:44:33;101767.41;;;-1.52;52.07
75505;BME280;64085;54.974;73.410;2023-03-13T14:47:04;101799.84;;;-1.45;52.35
75505;BME280;64085;54.974;73.410;2023-03-13T14:49:30;101794.69;;;-1.58;52.74